sensor_id;sensor_type;location;lat;lon;timestamp;temperature;humidity
56428;DHT22;42331;53.578;9.760;2023-02-02T00:01:07;5.60;99.90
56428;DHT22;42331;53.578;9.760;2023-02-02T00:03:38;5.50;99.90
56428;DHT22;42331;53.578;9.760;2023-02-02T00:06:09;5.40;99.90
56428;DHT22;42331;53.578;9.760;2023-02-02T00:08:40;5.40;99.90
56428;DHT22;42331;53.578;9.760;2023-02-02T00:11:11;5.50;99.90
56428;DHT22;42331;53.578;9.760;2023-02-02T00:13:42;5.60;99.90
56428;DHT22;42331;53.578;9.760;2023-02-02T00:18:58;5.60;99.90
56428;DHT22;42331;53.578;9.760;2023-02-02T00:21:29;5.50;99.90
56428;DHT22;42331;53.578;9.760;2023-02-02T00:24:00;5.50;99.90
56428;DHT22;42331;53.578;9.760;2023-02-02T00:26:31;5.60;99.90
56428;DHT22;42331;53.578;9.760;2023-02-02T00:29:02;5.50;99.90
56428;DHT22;42331;53.578;9.760;2023-02-02T00:31:33;5.50;99.90
56428;DHT22;42331;53.578;9.760;2023-02-02T00:34:04;5.60;99.90
56428;DHT22;42331;53.578;9.760;2023-02-02T00:36:35;5.50;99.90
56428;DHT22;42331;53.578;9.760;2023-02-02T00:39:06;5.40;99.90
56428;DHT22;42331;53.578;9.760;2023-02-02T00:41:37;5.40;99.90
56428;DHT22;42331;53.578;9.760;2023-02-02T00:44:08;5.40;99.90
56428;DHT22;42331;53.578;9.760;2023-02-02T00:46:57;5.30;99.90
56428;DHT22;42331;53.578;9.760;2023-02-02T00:49:28;5.30;99.90
56428;DHT22;42331;53.578;9.760;2023-02-02T00:51:58;5.30;99.90
56428;DHT22;42331;53.578;9.760;2023-02-02T00:54:29;5.30;99.90
56428;DHT22;42331;53.578;9.760;2023-02-02T00:57:00;5.20;99.90
56428;DHT22;42331;53.578;9.760;2023-02-02T00:59:31;5.20;99.90
56428;DHT22;42331;53.578;9.760;2023-02-02T01:02:01;5.20;99.90
56428;DHT22;42331;53.578;9.760;2023-02-02T01:04:32;5.20;99.90
56428;DHT22;42331;53.578;9.760;2023-02-02T01:07:03;5.20;99.90
56428;DHT22;42331;53.578;9.760;2023-02-02T01:09:34;5.20;99.90
56428;DHT22;42331;53.578;9.760;2023-02-02T01:12:04;5.10;99.90
56428;DHT22;42331;53.578;9.760;2023-02-02T01:14:35;5.10;99.90
56428;DHT22;42331;53.578;9.760;2023-02-02T01:17:06;5.10;99.90
56428;DHT22;42331;53.578;9.760;2023-02-02T01:19:36;5.00;99.90
56428;DHT22;42331;53.578;9.760;2023-02-02T01:22:08;5.00;99.90
56428;DHT22;42331;53.578;9.760;2023-02-02T01:24:39;5.10;99.90
56428;DHT22;42331;53.578;9.760;2023-02-02T01:27:09;5.10;99.90
56428;DHT22;42331;53.578;9.760;2023-02-02T01:29:40;5.10;99.90
56428;DHT22;42331;53.578;9.760;2023-02-02T01:32:11;5.10;99.90
56428;DHT22;42331;53.578;9.760;2023-02-02T01:34:42;5.10;99.90
56428;DHT22;42331;53.578;9.760;2023-02-02T01:37:13;5.20;99.90
56428;DHT22;42331;53.578;9.760;2023-02-02T01:39:43;5.20;99.90
56428;DHT22;42331;53.578;9.760;2023-02-02T01:42:20;5.30;99.90
56428;DHT22;42331;53.578;9.760;2023-02-02T01:47:25;5.30;99.90
56428;DHT22;42331;53.578;9.760;2023-02-02T01:49:57;5.40;99.90
56428;DHT22;42331;53.578;9.760;2023-02-02T01:52:28;5.40;99.90
56428;DHT22;42331;53.578;9.760;2023-02-02T01:55:05;5.40;99.90
56428;DHT22;42331;53.578;9.760;2023-02-02T01:57:44;5.40;99.90
56428;DHT22;42331;53.578;9.760;2023-02-02T02:00:16;5.40;99.90
56428;DHT22;42331;53.578;9.760;2023-02-02T02:02:48;5.30;99.90
56428;DHT22;42331;53.578;9.760;2023-02-02T02:05:26;5.30;99.90
56428;DHT22;42331;53.578;9.760;2023-02-02T02:08:16;5.30;99.90
56428;DHT22;42331;53.578;9.760;2023-02-02T02:10:47;5.30;99.90
56428;DHT22;42331;53.578;9.760;2023-02-02T02:13:20;5.30;99.90
56428;DHT22;42331;53.578;9.760;2023-02-02T02:16:00;5.40;99.90
56428;DHT22;42331;53.578;9.760;2023-02-02T02:36:48;5.30;99.90
56428;DHT22;42331;53.578;9.760;2023-02-02T02:42:03;5.30;99.90
56428;DHT22;42331;53.578;9.760;2023-02-02T02:44:35;5.40;99.90
56428;DHT22;42331;53.578;9.760;2023-02-02T02:47:06;5.40;99.90
56428;DHT22;42331;53.578;9.760;2023-02-02T02:49:42;5.40;99.90
56428;DHT22;42331;53.578;9.760;2023-02-02T02:52:13;5.40;99.90
56428;DHT22;42331;53.578;9.760;2023-02-02T02:54:52;5.40;99.90
56428;DHT22;42331;53.578;9.760;2023-02-02T02:57:45;5.40;99.90
56428;DHT22;42331;53.578;9.760;2023-02-02T03:05:54;5.40;99.90
56428;DHT22;42331;53.578;9.760;2023-02-02T03:08:27;5.30;99.90
56428;DHT22;42331;53.578;9.760;2023-02-02T03:11:03;5.20;99.90
56428;DHT22;42331;53.578;9.760;2023-02-02T03:13:35;5.30;99.90
56428;DHT22;42331;53.578;9.760;2023-02-02T03:16:06;5.20;99.90
56428;DHT22;42331;53.578;9.760;2023-02-02T03:18:37;5.20;99.90
56428;DHT22;42331;53.578;9.760;2023-02-02T03:21:08;5.30;99.90
56428;DHT22;42331;53.578;9.760;2023-02-02T03:23:39;5.30;99.90
56428;DHT22;42331;53.578;9.760;2023-02-02T03:26:10;5.30;99.90
56428;DHT22;42331;53.578;9.760;2023-02-02T03:28:41;5.30;99.90
56428;DHT22;42331;53.578;9.760;2023-02-02T03:31:12;5.30;99.90
56428;DHT22;42331;53.578;9.760;2023-02-02T03:33:43;5.20;99.90
56428;DHT22;42331;53.578;9.760;2023-02-02T03:36:14;5.20;99.90
56428;DHT22;42331;53.578;9.760;2023-02-02T03:38:44;5.20;99.90
56428;DHT22;42331;53.578;9.760;2023-02-02T03:41:15;5.10;99.90
56428;DHT22;42331;53.578;9.760;2023-02-02T03:43:46;5.10;99.90
56428;DHT22;42331;53.578;9.760;2023-02-02T03:46:16;5.10;99.90
56428;DHT22;42331;53.578;9.760;2023-02-02T03:48:47;5.00;99.90
56428;DHT22;42331;53.578;9.760;2023-02-02T03:51:18;5.00;99.90
56428;DHT22;42331;53.578;9.760;2023-02-02T03:53:48;4.90;99.90
56428;DHT22;42331;53.578;9.760;2023-02-02T03:56:19;4.80;99.90
56428;DHT22;42331;53.578;9.760;2023-02-02T03:58:50;4.80;99.90
56428;DHT22;42331;53.578;9.760;2023-02-02T04:01:28;4.80;99.90
56428;DHT22;42331;53.578;9.760;2023-02-02T04:03:59;4.80;99.90
56428;DHT22;42331;53.578;9.760;2023-02-02T04:06:29;4.80;99.90
56428;DHT22;42331;53.578;9.760;2023-02-02T04:09:08;4.90;99.90
56428;DHT22;42331;53.578;9.760;2023-02-02T04:11:39;4.80;99.90
56428;DHT22;42331;53.578;9.760;2023-02-02T04:14:10;4.90;99.90
56428;DHT22;42331;53.578;9.760;2023-02-02T04:16:40;4.90;99.90
56428;DHT22;42331;53.578;9.760;2023-02-02T04:19:11;4.90;99.90
56428;DHT22;42331;53.578;9.760;2023-02-02T04:21:42;4.90;99.90
56428;DHT22;42331;53.578;9.760;2023-02-02T04:24:13;4.90;99.90
56428;DHT22;42331;53.578;9.760;2023-02-02T04:26:44;4.90;99.90
56428;DHT22;42331;53.578;9.760;2023-02-02T04:29:15;4.90;99.90
56428;DHT22;42331;53.578;9.760;2023-02-02T04:31:46;4.90;99.90
56428;DHT22;42331;53.578;9.760;2023-02-02T04:34:16;4.90;99.90
56428;DHT22;42331;53.578;9.760;2023-02-02T04:36:47;5.00;99.90
56428;DHT22;42331;53.578;9.760;2023-02-02T04:39:18;5.00;99.90
56428;DHT22;42331;53.578;9.760;2023-02-02T04:41:48;5.00;99.90
56428;DHT22;42331;53.578;9.760;2023-02-02T04:44:19;5.00;99.90
56428;DHT22;42331;53.578;9.760;2023-02-02T04:46:50;5.00;99.90
56428;DHT22;42331;53.578;9.760;2023-02-02T04:49:20;5.10;99.90
56428;DHT22;42331;53.578;9.760;2023-02-02T04:51:51;5.10;99.90
56428;DHT22;42331;53.578;9.760;2023-02-02T04:54:22;5.10;99.90
56428;DHT22;42331;53.578;9.760;2023-02-02T04:56:52;5.10;99.90
56428;DHT22;42331;53.578;9.760;2023-02-02T04:59:23;5.10;99.90
56428;DHT22;42331;53.578;9.760;2023-02-02T05:01:55;5.10;99.90
56428;DHT22;42331;53.578;9.760;2023-02-02T05:04:25;5.10;99.90
56428;DHT22;42331;53.578;9.760;2023-02-02T05:06:56;5.10;99.90
56428;DHT22;42331;53.578;9.760;2023-02-02T05:09:27;5.10;99.90
56428;DHT22;42331;53.578;9.760;2023-02-02T05:11:58;5.10;99.90
56428;DHT22;42331;53.578;9.760;2023-02-02T05:14:28;5.20;99.90
56428;DHT22;42331;53.578;9.760;2023-02-02T05:16:59;5.20;99.90
56428;DHT22;42331;53.578;9.760;2023-02-02T05:19:30;5.20;99.90
56428;DHT22;42331;53.578;9.760;2023-02-02T05:22:00;5.20;99.90
56428;DHT22;42331;53.578;9.760;2023-02-02T05:24:31;5.20;99.90
56428;DHT22;42331;53.578;9.760;2023-02-02T05:27:02;5.20;99.90
56428;DHT22;42331;53.578;9.760;2023-02-02T05:29:32;5.30;99.90
56428;DHT22;42331;53.578;9.760;2023-02-02T05:32:03;5.30;99.90
56428;DHT22;42331;53.578;9.760;2023-02-02T05:34:34;5.30;99.90
56428;DHT22;42331;53.578;9.760;2023-02-02T05:37:05;5.20;99.90
56428;DHT22;42331;53.578;9.760;2023-02-02T05:39:36;5.30;99.90
56428;DHT22;42331;53.578;9.760;2023-02-02T05:42:06;5.20;99.90
56428;DHT22;42331;53.578;9.760;2023-02-02T05:44:37;5.30;99.90
56428;DHT22;42331;53.578;9.760;2023-02-02T05:47:08;5.30;99.90
56428;DHT22;42331;53.578;9.760;2023-02-02T05:49:41;5.30;99.90
56428;DHT22;42331;53.578;9.760;2023-02-02T05:52:16;5.30;99.90
56428;DHT22;42331;53.578;9.760;2023-02-02T05:54:47;5.30;99.90
56428;DHT22;42331;53.578;9.760;2023-02-02T05:57:18;5.20;99.90
56428;DHT22;42331;53.578;9.760;2023-02-02T05:59:49;5.30;99.90
56428;DHT22;42331;53.578;9.760;2023-02-02T06:02:19;5.40;99.90
56428;DHT22;42331;53.578;9.760;2023-02-02T06:04:50;5.40;99.90
56428;DHT22;42331;53.578;9.760;2023-02-02T06:07:21;5.50;99.90
56428;DHT22;42331;53.578;9.760;2023-02-02T06:09:51;5.40;99.90
56428;DHT22;42331;53.578;9.760;2023-02-02T06:12:22;5.40;99.90
56428;DHT22;42331;53.578;9.760;2023-02-02T06:14:53;5.40;99.90
56428;DHT22;42331;53.578;9.760;2023-02-02T06:17:23;5.40;99.90
56428;DHT22;42331;53.578;9.760;2023-02-02T06:19:54;5.40;99.90
56428;DHT22;42331;53.578;9.760;2023-02-02T06:22:25;5.30;99.90
56428;DHT22;42331;53.578;9.760;2023-02-02T06:24:55;5.30;99.90
56428;DHT22;42331;53.578;9.760;2023-02-02T06:27:26;5.20;99.90
56428;DHT22;42331;53.578;9.760;2023-02-02T06:29:57;5.30;99.90
56428;DHT22;42331;53.578;9.760;2023-02-02T06:32:28;5.30;99.90
56428;DHT22;42331;53.578;9.760;2023-02-02T06:34:59;5.30;99.90
56428;DHT22;42331;53.578;9.760;2023-02-02T06:37:30;5.40;99.90
56428;DHT22;42331;53.578;9.760;2023-02-02T06:40:01;5.30;99.90
56428;DHT22;42331;53.578;9.760;2023-02-02T06:42:31;5.30;99.90
56428;DHT22;42331;53.578;9.760;2023-02-02T06:45:03;5.30;99.90
56428;DHT22;42331;53.578;9.760;2023-02-02T06:47:34;5.40;99.90
56428;DHT22;42331;53.578;9.760;2023-02-02T06:50:05;5.50;99.90
56428;DHT22;42331;53.578;9.760;2023-02-02T06:52:35;5.40;99.90
56428;DHT22;42331;53.578;9.760;2023-02-02T06:55:06;5.50;99.90
56428;DHT22;42331;53.578;9.760;2023-02-02T06:57:37;5.40;99.90
56428;DHT22;42331;53.578;9.760;2023-02-02T07:00:08;5.40;99.90
56428;DHT22;42331;53.578;9.760;2023-02-02T07:02:43;5.30;99.90
56428;DHT22;42331;53.578;9.760;2023-02-02T07:05:14;5.30;99.90
56428;DHT22;42331;53.578;9.760;2023-02-02T07:07:45;5.20;99.90
56428;DHT22;42331;53.578;9.760;2023-02-02T07:10:16;5.20;99.90
56428;DHT22;42331;53.578;9.760;2023-02-02T07:12:48;5.10;99.90
56428;DHT22;42331;53.578;9.760;2023-02-02T07:15:18;5.20;99.90
56428;DHT22;42331;53.578;9.760;2023-02-02T07:17:49;5.20;99.90
56428;DHT22;42331;53.578;9.760;2023-02-02T07:20:20;5.10;99.90
56428;DHT22;42331;53.578;9.760;2023-02-02T07:22:50;5.10;99.90
56428;DHT22;42331;53.578;9.760;2023-02-02T07:25:22;5.10;99.90
56428;DHT22;42331;53.578;9.760;2023-02-02T07:27:53;5.20;99.90
56428;DHT22;42331;53.578;9.760;2023-02-02T07:30:24;5.10;99.90
56428;DHT22;42331;53.578;9.760;2023-02-02T07:32:59;5.10;99.90
56428;DHT22;42331;53.578;9.760;2023-02-02T07:35:30;5.20;99.90
56428;DHT22;42331;53.578;9.760;2023-02-02T07:38:07;5.20;99.90
56428;DHT22;42331;53.578;9.760;2023-02-02T07:40:37;5.30;99.90
56428;DHT22;42331;53.578;9.760;2023-02-02T07:43:08;5.30;99.90
56428;DHT22;42331;53.578;9.760;2023-02-02T07:45:39;5.20;99.90
56428;DHT22;42331;53.578;9.760;2023-02-02T07:48:12;5.20;99.90
56428;DHT22;42331;53.578;9.760;2023-02-02T07:50:43;5.10;99.90
56428;DHT22;42331;53.578;9.760;2023-02-02T07:53:13;5.10;99.90
56428;DHT22;42331;53.578;9.760;2023-02-02T07:55:44;5.00;99.90
56428;DHT22;42331;53.578;9.760;2023-02-02T07:58:15;5.00;99.90
56428;DHT22;42331;53.578;9.760;2023-02-02T08:00:45;4.90;99.90
56428;DHT22;42331;53.578;9.760;2023-02-02T08:03:16;5.00;99.90
56428;DHT22;42331;53.578;9.760;2023-02-02T08:05:47;5.00;99.90
56428;DHT22;42331;53.578;9.760;2023-02-02T08:08:17;5.00;99.90
56428;DHT22;42331;53.578;9.760;2023-02-02T08:10:49;5.00;99.90
56428;DHT22;42331;53.578;9.760;2023-02-02T08:13:20;5.00;99.90
56428;DHT22;42331;53.578;9.760;2023-02-02T08:15:50;5.00;99.90
56428;DHT22;42331;53.578;9.760;2023-02-02T08:18:21;5.10;99.90
56428;DHT22;42331;53.578;9.760;2023-02-02T08:20:52;5.10;99.90
56428;DHT22;42331;53.578;9.760;2023-02-02T08:23:22;5.10;99.90
56428;DHT22;42331;53.578;9.760;2023-02-02T08:25:54;5.10;99.90
56428;DHT22;42331;53.578;9.760;2023-02-02T08:28:34;5.20;99.90
56428;DHT22;42331;53.578;9.760;2023-02-02T08:33:46;5.20;99.90
56428;DHT22;42331;53.578;9.760;2023-02-02T08:36:19;5.40;99.90
56428;DHT22;42331;53.578;9.760;2023-02-02T08:38:50;5.40;99.90
56428;DHT22;42331;53.578;9.760;2023-02-02T08:41:23;5.40;99.90
56428;DHT22;42331;53.578;9.760;2023-02-02T08:43:53;5.40;99.90
56428;DHT22;42331;53.578;9.760;2023-02-02T08:46:24;5.40;99.90
56428;DHT22;42331;53.578;9.760;2023-02-02T08:48:55;5.50;99.90
56428;DHT22;42331;53.578;9.760;2023-02-02T08:51:26;5.50;99.90
56428;DHT22;42331;53.578;9.760;2023-02-02T08:54:02;5.50;99.90
56428;DHT22;42331;53.578;9.760;2023-02-02T08:56:33;5.50;99.90
56428;DHT22;42331;53.578;9.760;2023-02-02T08:59:04;5.70;99.90
56428;DHT22;42331;53.578;9.760;2023-02-02T09:01:35;5.70;99.90
56428;DHT22;42331;53.578;9.760;2023-02-02T09:04:09;5.80;99.90
56428;DHT22;42331;53.578;9.760;2023-02-02T09:06:43;5.80;99.90
56428;DHT22;42331;53.578;9.760;2023-02-02T09:09:15;5.80;99.90
56428;DHT22;42331;53.578;9.760;2023-02-02T09:11:45;5.80;99.90
56428;DHT22;42331;53.578;9.760;2023-02-02T09:14:23;5.90;99.90
56428;DHT22;42331;53.578;9.760;2023-02-02T09:16:53;5.90;99.90
56428;DHT22;42331;53.578;9.760;2023-02-02T09:19:24;5.90;99.90
56428;DHT22;42331;53.578;9.760;2023-02-02T09:21:55;6.10;99.90
56428;DHT22;42331;53.578;9.760;2023-02-02T09:24:25;6.30;99.90
56428;DHT22;42331;53.578;9.760;2023-02-02T09:26:56;6.40;99.90
56428;DHT22;42331;53.578;9.760;2023-02-02T09:29:27;6.40;99.90
56428;DHT22;42331;53.578;9.760;2023-02-02T09:31:57;6.30;99.90
56428;DHT22;42331;53.578;9.760;2023-02-02T09:34:28;6.40;99.90
56428;DHT22;42331;53.578;9.760;2023-02-02T09:36:59;6.80;99.90
56428;DHT22;42331;53.578;9.760;2023-02-02T09:39:30;7.30;99.90
56428;DHT22;42331;53.578;9.760;2023-02-02T09:45:02;7.80;99.90
56428;DHT22;42331;53.578;9.760;2023-02-02T09:55:34;9.60;99.90
56428;DHT22;42331;53.578;9.760;2023-02-02T10:01:12;10.20;99.90
56428;DHT22;42331;53.578;9.760;2023-02-02T10:11:41;8.50;99.90
56428;DHT22;42331;53.578;9.760;2023-02-02T10:29:06;10.40;99.90
56428;DHT22;42331;53.578;9.760;2023-02-02T10:34:22;10.00;99.90
56428;DHT22;42331;53.578;9.760;2023-02-02T10:43:29;8.90;99.90
56428;DHT22;42331;53.578;9.760;2023-02-02T10:45:53;9.20;99.90
56428;DHT22;42331;53.578;9.760;2023-02-02T10:48:29;8.60;99.90
56428;DHT22;42331;53.578;9.760;2023-02-02T10:51:22;8.20;99.90
56428;DHT22;42331;53.578;9.760;2023-02-02T10:53:55;7.90;99.90
56428;DHT22;42331;53.578;9.760;2023-02-02T10:56:46;8.00;99.90
56428;DHT22;42331;53.578;9.760;2023-02-02T10:59:28;7.60;99.90
56428;DHT22;42331;53.578;9.760;2023-02-02T11:02:01;8.10;99.90
56428;DHT22;42331;53.578;9.760;2023-02-02T11:04:32;8.30;99.90
56428;DHT22;42331;53.578;9.760;2023-02-02T11:07:21;8.90;99.90
56428;DHT22;42331;53.578;9.760;2023-02-02T11:09:52;8.80;99.90
56428;DHT22;42331;53.578;9.760;2023-02-02T11:12:34;9.00;99.90
56428;DHT22;42331;53.578;9.760;2023-02-02T11:15:29;9.00;99.90
56428;DHT22;42331;53.578;9.760;2023-02-02T11:18:27;9.10;99.90
56428;DHT22;42331;53.578;9.760;2023-02-02T11:20:58;9.70;99.90
56428;DHT22;42331;53.578;9.760;2023-02-02T11:23:28;10.00;99.90
56428;DHT22;42331;53.578;9.760;2023-02-02T11:26:01;9.50;99.90
56428;DHT22;42331;53.578;9.760;2023-02-02T11:28:35;8.90;99.90
56428;DHT22;42331;53.578;9.760;2023-02-02T11:31:06;8.50;99.90
56428;DHT22;42331;53.578;9.760;2023-02-02T11:33:37;8.20;99.90
56428;DHT22;42331;53.578;9.760;2023-02-02T11:36:19;8.30;99.90
56428;DHT22;42331;53.578;9.760;2023-02-02T11:39:14;8.10;99.90
56428;DHT22;42331;53.578;9.760;2023-02-02T11:41:46;8.20;99.90
56428;DHT22;42331;53.578;9.760;2023-02-02T11:44:26;8.10;99.90
56428;DHT22;42331;53.578;9.760;2023-02-02T11:46:57;8.00;99.90
56428;DHT22;42331;53.578;9.760;2023-02-02T11:49:28;8.00;99.90
56428;DHT22;42331;53.578;9.760;2023-02-02T11:52:04;8.10;99.90
56428;DHT22;42331;53.578;9.760;2023-02-02T11:54:37;8.00;99.90
56428;DHT22;42331;53.578;9.760;2023-02-02T11:57:09;8.00;99.90
56428;DHT22;42331;53.578;9.760;2023-02-02T11:59:42;8.10;99.90
56428;DHT22;42331;53.578;9.760;2023-02-02T12:04:51;8.30;99.90
56428;DHT22;42331;53.578;9.760;2023-02-02T12:07:30;8.20;99.90
56428;DHT22;42331;53.578;9.760;2023-02-02T12:10:24;8.10;99.90
56428;DHT22;42331;53.578;9.760;2023-02-02T12:13:15;7.90;99.90
56428;DHT22;42331;53.578;9.760;2023-02-02T12:16:05;8.10;99.90
56428;DHT22;42331;53.578;9.760;2023-02-02T12:18:57;8.20;99.90
56428;DHT22;42331;53.578;9.760;2023-02-02T12:24:08;7.90;99.90
56428;DHT22;42331;53.578;9.760;2023-02-02T12:26:49;7.90;99.90
56428;DHT22;42331;53.578;9.760;2023-02-02T12:38:07;7.80;99.90
56428;DHT22;42331;53.578;9.760;2023-02-02T12:43:26;7.50;99.90
56428;DHT22;42331;53.578;9.760;2023-02-02T13:00:44;7.40;99.90
56428;DHT22;42331;53.578;9.760;2023-02-02T13:11:39;7.30;99.90
56428;DHT22;42331;53.578;9.760;2023-02-02T13:14:16;7.20;99.90
56428;DHT22;42331;53.578;9.760;2023-02-02T13:16:53;7.10;99.90
56428;DHT22;42331;53.578;9.760;2023-02-02T13:22:40;7.10;99.90
56428;DHT22;42331;53.578;9.760;2023-02-02T13:25:28;7.00;99.90
56428;DHT22;42331;53.578;9.760;2023-02-02T13:28:01;7.00;99.90
56428;DHT22;42331;53.578;9.760;2023-02-02T13:30:37;7.10;99.90
56428;DHT22;42331;53.578;9.760;2023-02-02T13:33:16;7.10;99.90
56428;DHT22;42331;53.578;9.760;2023-02-02T13:35:53;7.10;99.90
56428;DHT22;42331;53.578;9.760;2023-02-02T13:38:26;7.20;99.90
56428;DHT22;42331;53.578;9.760;2023-02-02T13:41:03;7.20;99.90
56428;DHT22;42331;53.578;9.760;2023-02-02T13:43:55;7.20;99.90
56428;DHT22;42331;53.578;9.760;2023-02-02T13:46:48;7.30;99.90
56428;DHT22;42331;53.578;9.760;2023-02-02T13:49:29;7.20;99.90
56428;DHT22;42331;53.578;9.760;2023-02-02T14:00:48;7.30;99.90
56428;DHT22;42331;53.578;9.760;2023-02-02T14:03:36;7.40;99.90
56428;DHT22;42331;53.578;9.760;2023-02-02T14:06:19;7.40;99.90
56428;DHT22;42331;53.578;9.760;2023-02-02T14:08:55;7.30;99.90
56428;DHT22;42331;53.578;9.760;2023-02-02T14:11:54;7.30;99.90
56428;DHT22;42331;53.578;9.760;2023-02-02T14:14:26;7.20;99.90
56428;DHT22;42331;53.578;9.760;2023-02-02T14:17:48;7.20;99.90
56428;DHT22;42331;53.578;9.760;2023-02-02T14:20:01;7.30;99.90
56428;DHT22;42331;53.578;9.760;2023-02-02T14:22:45;7.20;99.90
56428;DHT22;42331;53.578;9.760;2023-02-02T14:28:06;7.10;99.90
56428;DHT22;42331;53.578;9.760;2023-02-02T14:30:39;7.00;99.90
56428;DHT22;42331;53.578;9.760;2023-02-02T14:33:36;7.00;99.90
56428;DHT22;42331;53.578;9.760;2023-02-02T14:36:13;7.00;99.90
56428;DHT22;42331;53.578;9.760;2023-02-02T14:41:46;6.80;99.90
56428;DHT22;42331;53.578;9.760;2023-02-02T14:44:30;6.80;99.90
56428;DHT22;42331;53.578;9.760;2023-02-02T14:47:01;6.80;99.90
56428;DHT22;42331;53.578;9.760;2023-02-02T14:49:33;6.70;99.90
56428;DHT22;42331;53.578;9.760;2023-02-02T14:52:21;6.80;99.90
56428;DHT22;42331;53.578;9.760;2023-02-02T14:54:52;6.90;99.90
56428;DHT22;42331;53.578;9.760;2023-02-02T14:57:28;6.80;99.90
56428;DHT22;42331;53.578;9.760;2023-02-02T14:59:59;6.70;99.90
56428;DHT22;42331;53.578;9.760;2023-02-02T15:02:34;6.70;99.90
56428;DHT22;42331;53.578;9.760;2023-02-02T15:08:25;6.60;99.90
56428;DHT22;42331;53.578;9.760;2023-02-02T15:11:05;6.60;99.90
56428;DHT22;42331;53.578;9.760;2023-02-02T15:14:00;6.60;99.90
56428;DHT22;42331;53.578;9.760;2023-02-02T15:16:37;6.50;99.90
56428;DHT22;42331;53.578;9.760;2023-02-02T15:19:24;6.50;99.90
56428;DHT22;42331;53.578;9.760;2023-02-02T15:22:11;6.50;99.90
56428;DHT22;42331;53.578;9.760;2023-02-02T15:24:44;6.50;99.90
56428;DHT22;42331;53.578;9.760;2023-02-02T15:27:16;6.40;99.90
56428;DHT22;42331;53.578;9.760;2023-02-02T15:29:53;6.50;99.90
56428;DHT22;42331;53.578;9.760;2023-02-02T15:32:26;6.30;99.90
56428;DHT22;42331;53.578;9.760;2023-02-02T15:35:03;6.20;99.90
56428;DHT22;42331;53.578;9.760;2023-02-02T15:37:38;6.10;99.90
56428;DHT22;42331;53.578;9.760;2023-02-02T15:40:14;6.10;99.90
56428;DHT22;42331;53.578;9.760;2023-02-02T15:42:49;6.00;99.90
56428;DHT22;42331;53.578;9.760;2023-02-02T15:48:06;5.80;99.90
56428;DHT22;42331;53.578;9.760;2023-02-02T15:50:38;5.70;99.90
56428;DHT22;42331;53.578;9.760;2023-02-02T15:53:21;5.60;99.90
56428;DHT22;42331;53.578;9.760;2023-02-02T15:55:54;5.50;99.90
56428;DHT22;42331;53.578;9.760;2023-02-02T15:58:29;5.40;99.90
56428;DHT22;42331;53.578;9.760;2023-02-02T16:01:11;5.30;99.90
56428;DHT22;42331;53.578;9.760;2023-02-02T16:03:51;5.30;99.90
56428;DHT22;42331;53.578;9.760;2023-02-02T16:06:23;5.20;99.90
56428;DHT22;42331;53.578;9.760;2023-02-02T16:08:54;5.10;99.90
56428;DHT22;42331;53.578;9.760;2023-02-02T16:11:24;5.10;99.90
56428;DHT22;42331;53.578;9.760;2023-02-02T16:14:04;4.90;99.90
56428;DHT22;42331;53.578;9.760;2023-02-02T16:16:38;4.90;99.90
56428;DHT22;42331;53.578;9.760;2023-02-02T16:19:22;4.80;99.90
56428;DHT22;42331;53.578;9.760;2023-02-02T16:21:59;4.80;99.90
56428;DHT22;42331;53.578;9.760;2023-02-02T16:24:33;4.70;99.90
56428;DHT22;42331;53.578;9.760;2023-02-02T16:27:07;4.70;99.90
56428;DHT22;42331;53.578;9.760;2023-02-02T16:29:41;4.70;99.90
56428;DHT22;42331;53.578;9.760;2023-02-02T16:32:31;4.60;99.90
56428;DHT22;42331;53.578;9.760;2023-02-02T16:35:05;4.60;99.90
56428;DHT22;42331;53.578;9.760;2023-02-02T16:37:36;4.60;99.90
56428;DHT22;42331;53.578;9.760;2023-02-02T16:40:28;4.60;99.90
56428;DHT22;42331;53.578;9.760;2023-02-02T16:45:45;4.70;99.90
56428;DHT22;42331;53.578;9.760;2023-02-02T16:51:08;4.50;99.90
56428;DHT22;42331;53.578;9.760;2023-02-02T16:53:40;4.40;99.90
56428;DHT22;42331;53.578;9.760;2023-02-02T16:58:54;4.40;99.90
56428;DHT22;42331;53.578;9.760;2023-02-02T17:01:37;4.40;99.90
56428;DHT22;42331;53.578;9.760;2023-02-02T17:04:18;4.40;99.90
56428;DHT22;42331;53.578;9.760;2023-02-02T17:06:50;4.40;99.90
56428;DHT22;42331;53.578;9.760;2023-02-02T17:09:34;4.30;99.90
56428;DHT22;42331;53.578;9.760;2023-02-02T17:14:53;4.30;99.90
56428;DHT22;42331;53.578;9.760;2023-02-02T17:17:24;4.20;99.90
56428;DHT22;42331;53.578;9.760;2023-02-02T17:19:55;4.20;99.90
56428;DHT22;42331;53.578;9.760;2023-02-02T17:22:25;4.20;99.90
56428;DHT22;42331;53.578;9.760;2023-02-02T17:24:59;4.10;99.90
56428;DHT22;42331;53.578;9.760;2023-02-02T17:27:31;4.30;99.90
56428;DHT22;42331;53.578;9.760;2023-02-02T17:30:03;4.10;99.90
56428;DHT22;42331;53.578;9.760;2023-02-02T17:32:34;4.10;99.90
56428;DHT22;42331;53.578;9.760;2023-02-02T17:35:16;4.10;99.90
56428;DHT22;42331;53.578;9.760;2023-02-02T17:37:47;4.10;99.90
56428;DHT22;42331;53.578;9.760;2023-02-02T17:40:21;4.20;99.90
56428;DHT22;42331;53.578;9.760;2023-02-02T17:42:52;4.20;99.90
56428;DHT22;42331;53.578;9.760;2023-02-02T17:45:29;4.20;99.90
56428;DHT22;42331;53.578;9.760;2023-02-02T17:50:33;4.20;99.90
56428;DHT22;42331;53.578;9.760;2023-02-02T17:53:03;4.30;99.90
56428;DHT22;42331;53.578;9.760;2023-02-02T17:55:39;4.30;99.90
56428;DHT22;42331;53.578;9.760;2023-02-02T17:58:12;4.30;99.90
56428;DHT22;42331;53.578;9.760;2023-02-02T18:00:51;4.40;99.90
56428;DHT22;42331;53.578;9.760;2023-02-02T18:03:27;4.40;99.90
56428;DHT22;42331;53.578;9.760;2023-02-02T18:05:59;4.40;99.90
56428;DHT22;42331;53.578;9.760;2023-02-02T18:08:31;4.40;99.90
56428;DHT22;42331;53.578;9.760;2023-02-02T18:11:02;4.40;99.90
56428;DHT22;42331;53.578;9.760;2023-02-02T18:13:33;4.30;99.90
56428;DHT22;42331;53.578;9.760;2023-02-02T18:16:05;4.40;99.90
56428;DHT22;42331;53.578;9.760;2023-02-02T18:18:36;4.40;99.90
56428;DHT22;42331;53.578;9.760;2023-02-02T18:21:08;4.40;99.90
56428;DHT22;42331;53.578;9.760;2023-02-02T18:23:39;4.50;99.90
56428;DHT22;42331;53.578;9.760;2023-02-02T18:26:16;4.60;99.90
56428;DHT22;42331;53.578;9.760;2023-02-02T18:28:48;4.70;99.90
56428;DHT22;42331;53.578;9.760;2023-02-02T18:31:20;4.70;99.90
56428;DHT22;42331;53.578;9.760;2023-02-02T18:33:53;4.80;99.90
56428;DHT22;42331;53.578;9.760;2023-02-02T18:36:24;4.90;99.90
56428;DHT22;42331;53.578;9.760;2023-02-02T18:38:55;4.90;99.90
56428;DHT22;42331;53.578;9.760;2023-02-02T18:41:31;5.00;99.90
56428;DHT22;42331;53.578;9.760;2023-02-02T18:44:08;5.00;99.90
56428;DHT22;42331;53.578;9.760;2023-02-02T18:46:41;5.00;99.90
56428;DHT22;42331;53.578;9.760;2023-02-02T18:49:12;5.00;99.90
56428;DHT22;42331;53.578;9.760;2023-02-02T18:51:43;5.00;99.90
56428;DHT22;42331;53.578;9.760;2023-02-02T18:54:13;5.10;99.90
56428;DHT22;42331;53.578;9.760;2023-02-02T18:56:44;5.10;99.90
56428;DHT22;42331;53.578;9.760;2023-02-02T18:59:15;5.10;99.90
56428;DHT22;42331;53.578;9.760;2023-02-02T19:01:46;5.10;99.90
56428;DHT22;42331;53.578;9.760;2023-02-02T19:04:16;5.10;99.90